Lawson, AR (71750)

2:57 PM CDT on July 27, 2016 (GMT -0500)
Smackover | | Change Station

Elev 121 ft 33.36 °N, 92.72 °W | Updated 5 seconds ago

Clear
Clear
88.0 °F
Feels Like 96 °F
N
0.0
Wind Variable Wind from NE
Gusts 6.0 mph

Today
High -- | Low -- °F
--% Chance of Precip.
Yesterday
High -- | Low -- °F
Precip. -- in
Pressure 29.93 in
Visibility 10.0 miles
Clouds Clear
Heat Index 96 °F
Dew Point 73 °F
Humidity 62%
Rainfall 0.40 in
Snow Depth Not available.
6:19 AM 8:12 PM
Last Quarter, 40% visible
METAR KELD 271953Z AUTO 10003KT 10SM CLR 30/21 A2994 RMK AO2 SLP135 T03000211
Pressure 29.93 in
Visibility 10.0 miles
Clouds Clear
Heat Index 96 °F
Dew Point 73 °F
Humidity 62%
Rainfall 0.40 in
Snow Depth Not available.
6:19 AM 8:12 PM
Last Quarter, 40% visible
METAR KELD 271953Z AUTO 10003KT 10SM CLR 30/21 A2994 RMK AO2 SLP135 T03000211

10-Day Weather Forecast

Almanac

Astronomy

Jul. 27, 2016 Rise Set
Actual Time
Civil Twilight
Nautical Twilight
Astronomical Twilight
Moon
Length of Visible Light
Length of Day
Tomorrow will be .
, % of the Moon is Illuminated

Today's Extremes

State Highs State Lows

Community

WunderPhotos

Upload Photos

1,927,920 photos uploaded!

WunderBlog® & News

Nearby

Air Quality

  Air Quality AQ Index Pollutant
Not available.

Snow Depth

Station Depth Elevation

Earthquake Activity

City Distance Mag. Time & Date
Minimum magnitude displayed is 2.5.

Coastal Water Temperatures

Place Temperature

Stations

Nearby Weather Stations

Station Location Temp. Windchill Dew Point Humidity Wind Precip. Elev Updated Type
                   

Watches & Warnings

There are currently no watches in effect.